الصفحة الرئيسية
METAR-TAF:

METAR-TAF

مطار :

سايبان, جزر ماريانا, الولايات المتحدة

دائرة عرض: 15-07N, خط طول: 145-44E, ارتفاع: 66 متر

مراقبة الطقس الحالي

تاريخ ووقت الإصدار 53 دقيقة قبل الساعة 22:54UTC
ريح 15 عقدة من الشرق
درجة الحرارة 29°درجة مئوية
الرطوبة 70%
ضغط 1014 hPa
الرؤية: 16.1 كم
غيوم قليلة على ارتفاع 2100 قدم
غيوم متفرقة على ارتفاع 3200 قدم

METAR: PGSN 282254Z 10015KT 10SM FEW021 SCT032 29/23 A2995 RMK AO2 SLP165 T02890233

زمن: 09:47 (23:47 UTC)

توقعات

تاريخ ووقت الإصدار 6ساعات و 11 دقيقة قبل الساعة 17:36UTC
التوقعات صالحة من28 الساعة 18 UTC إلى 29 الساعة 18 UTC
ريح 15 عقدة من الشرق
الرؤية: 10 كم
غيوم متفرقة على ارتفاع 1700 قدم
غيوم مفككة على ارتفاع 5000 قدم
زخات في الجوار

TAF: PGSN 281736Z 2818/2918 08015KT P6SM VCSH SCT017 BKN050

أرصاد الطقس والتوقعات من أكثر من 4000 مطار (تقارير الطقس للمطار METAR والتنبؤ بالطقس بالمطارTAF).

المحطات المتاحة هي النقط الصفراء والحمراء على الخريطة.

حرك المؤشر فوق النقطة لمعرفة اسم المحطة.

ثم انقر لمعرفة أرصاد وتوقعات الطقس.

لتغيير الخارطة: اضغط على الأزرار الخضراء مع رمز الصليب الأسود للتكبير. على الزر الأخضر مع شرطة للتصغير، أو على الأسهم الخضراء للخرائط المجاورة.


METAR-TAF: